Time,TemperatureF,DewpointF,PressureIn,WindDirection,WindDirectionDegrees,WindSpeedMPH,WindSpeedGustMPH,Humidity,HourlyPrecipIn,Conditions,Clouds,dailyrainin,SolarRadiationWatts/m^2,SoftwareType,DateUTC
2013-07-24 01:00:00,58.0,47.0,-100.00,NNE,22,4.0,-999.0,66,-99.99,,,-99.99,0.000000,,2013-07-24 05:00:00,
2013-07-24 01:43:00,58.0,47.0,-100.00,NNE,22,4.0,-999.0,66,-99.99,,,-99.99,0.000000,,2013-07-24 05:43:00,
2013-07-24 01:52:00,58.0,47.0,-100.00,NNE,22,4.0,-999.0,66,-99.99,,,-99.99,0.000000,,2013-07-24 05:52:00,
2013-07-24 03:00:00,55.0,46.0,-100.00,NNE,22,1.0,-999.0,73,-99.99,,,-99.99,0.000000,,2013-07-24 07:00:00,
2013-07-24 03:43:00,55.0,46.0,-100.00,NNE,22,1.0,-999.0,73,-99.99,,,-99.99,0.000000,,2013-07-24 07:43:00,
2013-07-24 03:53:00,55.0,46.0,-100.00,NNE,22,1.0,-999.0,73,-99.99,,,-99.99,0.000000,,2013-07-24 07:53:00,
2013-07-24 04:00:00,52.0,46.0,-100.00,North,0,0.0,-999.0,80,-99.99,,,-99.99,0.000000,,2013-07-24 08:00:00,
2013-07-24 05:00:00,50.0,46.0,-100.00,North,0,0.0,-999.0,83,-99.99,,,-99.99,0.000000,,2013-07-24 09:00:00,
2013-07-24 07:00:00,48.0,46.0,-100.00,North,0,0.0,-999.0,90,-99.99,,,-99.99,9.280000,,2013-07-24 11:00:00,
2013-07-24 07:44:00,48.0,46.0,-100.00,North,0,0.0,-999.0,90,-99.99,,,-99.99,9.280000,,2013-07-24 11:44:00,
2013-07-24 07:52:00,48.0,46.0,-100.00,North,0,0.0,-999.0,90,-99.99,,,-99.99,9.280000,,2013-07-24 11:52:00,
2013-07-24 09:00:00,58.0,47.0,-100.00,NNE,22,2.0,-999.0,67,-99.99,,,-99.99,279.559998,,2013-07-24 13:00:00,
2013-07-24 09:43:00,58.0,47.0,-100.00,NNE,22,2.0,-999.0,67,-99.99,,,-99.99,279.559998,,2013-07-24 13:43:00,
2013-07-24 09:53:00,58.0,47.0,-100.00,NNE,22,2.0,-999.0,67,-99.99,,,-99.99,279.559998,,2013-07-24 13:53:00,
2013-07-24 12:00:00,67.0,45.0,-100.00,NNE,22,5.0,-999.0,45,-99.99,,,-99.99,740.080017,,2013-07-24 16:00:00,
2013-07-24 12:33:00,67.0,45.0,-100.00,NNE,22,5.0,-999.0,45,-99.99,,,-99.99,740.080017,,2013-07-24 16:33:00,
2013-07-24 12:43:00,67.0,45.0,-100.00,NNE,22,5.0,-999.0,45,-99.99,,,-99.99,740.080017,,2013-07-24 16:43:00,
2013-07-24 12:53:00,67.0,45.0,-100.00,NNE,22,5.0,-999.0,45,-99.99,,,-99.99,740.080017,,2013-07-24 16:53:00,
2013-07-24 15:00:00,71.0,47.0,-100.00,North,0,5.0,-999.0,42,-99.99,,,-99.99,870.000000,,2013-07-24 19:00:00,
2013-07-24 15:43:00,71.0,47.0,-100.00,North,0,5.0,-999.0,42,-99.99,,,-99.99,870.000000,,2013-07-24 19:43:00,
2013-07-24 15:53:00,71.0,47.0,-100.00,North,0,5.0,-999.0,42,-99.99,,,-99.99,870.000000,,2013-07-24 19:53:00,
2013-07-24 16:00:00,72.0,50.0,-100.00,NNW,337,6.0,-999.0,45,-99.99,,,-99.99,800.400024,,2013-07-24 20:00:00,
2013-07-24 16:33:00,72.0,50.0,-100.00,NNW,337,6.0,-999.0,45,-99.99,,,-99.99,800.400024,,2013-07-24 20:33:00,
2013-07-24 16:43:00,72.0,50.0,-100.00,NNW,337,6.0,-999.0,45,-99.99,,,-99.99,800.400024,,2013-07-24 20:43:00,
2013-07-24 16:53:00,72.0,50.0,-100.00,NNW,337,6.0,-999.0,45,-99.99,,,-99.99,800.400024,,2013-07-24 20:53:00,
2013-07-24 17:00:00,72.0,50.0,-100.00,NNW,337,6.0,-999.0,45,-99.99,,,-99.99,715.719971,,2013-07-24 21:00:00,
2013-07-24 17:44:00,72.0,50.0,-100.00,NNW,337,6.0,-999.0,45,-99.99,,,-99.99,715.719971,,2013-07-24 21:44:00,
2013-07-24 17:53:00,72.0,50.0,-100.00,NNW,337,6.0,-999.0,45,-99.99,,,-99.99,715.719971,,2013-07-24 21:53:00,
2013-07-24 18:00:00,71.0,50.0,-100.00,North,0,6.0,-999.0,47,-99.99,,,-99.99,466.320007,,2013-07-24 22:00:00,
2013-07-24 18:43:00,71.0,50.0,-100.00,North,0,6.0,-999.0,47,-99.99,,,-99.99,466.320007,,2013-07-24 22:43:00,
2013-07-24 18:53:00,71.0,50.0,-100.00,North,0,6.0,-999.0,47,-99.99,,,-99.99,466.320007,,2013-07-24 22:53:00,
2013-07-24 19:00:00,69.0,50.0,-100.00,NNW,337,5.0,-999.0,50,-99.99,,,-99.99,364.239990,,2013-07-24 23:00:00,
2013-07-24 19:43:00,69.0,50.0,-100.00,NNW,337,5.0,-999.0,50,-99.99,,,-99.99,364.239990,,2013-07-24 23:43:00,
2013-07-24 19:52:00,69.0,50.0,-100.00,NNW,337,5.0,-999.0,50,-99.99,,,-99.99,364.239990,,2013-07-24 23:52:00,
2013-07-24 21:00:00,65.0,51.0,-100.00,North,0,2.0,-999.0,59,-99.99,,,-99.99,70.760002,,2013-07-25 01:00:00,
2013-07-24 21:43:00,65.0,51.0,-100.00,North,0,2.0,-999.0,59,-99.99,,,-99.99,70.760002,,2013-07-25 01:43:00,
2013-07-24 21:53:00,65.0,51.0,-100.00,North,0,2.0,-999.0,59,-99.99,,,-99.99,70.760002,,2013-07-25 01:53:00,
2013-07-24 22:00:00,61.0,52.0,-100.00,North,0,1.0,-999.0,71,-99.99,,,-99.99,2.320000,,2013-07-25 02:00:00,
2013-07-24 22:43:00,61.0,52.0,-100.00,North,0,1.0,-999.0,71,-99.99,,,-99.99,2.320000,,2013-07-25 02:43:00,
2013-07-24 22:53:00,61.0,52.0,-100.00,North,0,1.0,-999.0,71,-99.99,,,-99.99,2.320000,,2013-07-25 02:53:00,
2013-07-24 23:00:00,58.0,52.0,-100.00,North,0,0.0,-999.0,80,-99.99,,,-99.99,0.000000,,2013-07-25 03:00:00,
2013-07-24 23:45:00,58.0,52.0,-100.00,North,0,0.0,-999.0,80,-99.99,,,-99.99,0.000000,,2013-07-25 03:45:00,
2013-07-24 23:53:00,58.0,52.0,-100.00,North,0,0.0,-999.0,80,-99.99,,,-99.99,0.000000,,2013-07-25 03:53:00,